Time;durP1;ratioP1;P1;durP2;ratioP2;P2;SDS_P1;SDS_P2;PMS_P1;PMS_P2;Temp;Humidity;BMP_temperature;BMP_pressure;BME280_temperature;BME280_humidity;BME280_pressure;Samples;Min_cycle;Max_cycle;Signal;HPM_P1;HPM_P2
2023/03/06 00:01:53;;;;;;;0.30;0.30;;;3.10;81.50;;;;;;4990753;28;20041;-76
2023/03/06 00:04:19;;;;;;;0.47;0.47;;;3.10;81.50;;;;;;4994116;28;20080;-76
2023/03/06 00:06:45;;;;;;;0.40;0.40;;;3.00;81.70;;;;;;5002015;28;20037;-76
2023/03/06 00:09:11;;;;;;;1.30;1.20;;;3.00;82.00;;;;;;4999790;28;20031;-76
2023/03/06 00:11:36;;;;;;;0.47;0.47;;;2.90;82.30;;;;;;4997084;28;20470;-76
2023/03/06 00:14:02;;;;;;;0.52;0.52;;;2.80;82.40;;;;;;4997534;28;20065;-76
2023/03/06 00:16:28;;;;;;;4.97;1.75;;;2.80;82.80;;;;;;4985030;28;20041;-76
2023/03/06 00:18:54;;;;;;;1.13;1.13;;;2.70;82.90;;;;;;4990232;28;20041;-76
2023/03/06 00:21:19;;;;;;;0.52;0.52;;;2.50;83.30;;;;;;4998131;28;20033;-76
2023/03/06 00:23:45;;;;;;;1.13;1.13;;;2.60;83.40;;;;;;4999879;28;20545;-76
2023/03/06 00:26:11;;;;;;;1.17;1.17;;;2.60;83.40;;;;;;5004269;28;20064;-77
2023/03/06 00:28:37;;;;;;;0.70;0.70;;;2.60;83.80;;;;;;4998895;28;20073;-76
2023/03/06 00:31:02;;;;;;;0.10;0.10;;;2.60;83.40;;;;;;4985971;28;20021;-76
2023/03/06 00:33:28;;;;;;;3.25;1.38;;;2.70;83.60;;;;;;5002572;28;20054;-76
2023/03/06 00:35:55;;;;;;;0.05;0.05;;;2.70;83.50;;;;;;4999879;28;20498;-76
2023/03/06 00:38:20;;;;;;;0.95;0.90;;;2.70;83.50;;;;;;4999277;28;20087;-76
2023/03/06 00:40:46;;;;;;;0.20;0.20;;;2.70;83.80;;;;;;5003753;28;20049;-76
2023/03/06 00:43:12;;;;;;;1.02;1.02;;;2.70;83.90;;;;;;4976846;28;20030;-77
2023/03/06 00:45:38;;;;;;;1.30;1.27;;;2.70;84.00;;;;;;4987259;28;20054;-77
2023/03/06 00:48:04;;;;;;;2.17;1.15;;;2.60;84.30;;;;;;4980319;28;20022;-77
2023/03/06 00:50:30;;;;;;;4.05;1.27;;;2.40;84.50;;;;;;4967649;28;20062;-76
2023/03/06 00:52:55;;;;;;;0.70;0.43;;;2.40;84.70;;;;;;4982546;28;20512;-77
2023/03/06 00:55:21;;;;;;;0.40;0.40;;;2.30;85.10;;;;;;4978444;28;20687;-77
2023/03/06 00:57:47;;;;;;;1.00;1.00;;;2.30;85.30;;;;;;4983811;28;20033;-76
2023/03/06 01:00:13;;;;;;;1.23;1.23;;;2.30;85.60;;;;;;4982437;28;20047;-76
2023/03/06 01:02:39;;;;;;;0.10;0.10;;;2.20;85.60;;;;;;4977948;28;20418;-76
2023/03/06 01:05:06;;;;;;;2.83;0.75;;;2.30;85.50;;;;;;4988930;28;20486;-76
2023/03/06 01:07:35;;;;;;;0.65;0.65;;;2.30;85.30;;;;;;4974367;28;20038;-75
2023/03/06 01:10:03;;;;;;;2.30;1.63;;;2.40;85.40;;;;;;4982683;28;20034;-76
2023/03/06 01:12:29;;;;;;;0.70;0.70;;;2.40;85.20;;;;;;4980438;28;20034;-76
2023/03/06 01:14:55;;;;;;;0.10;0.10;;;2.40;85.30;;;;;;4966157;28;20616;-76
2023/03/06 01:17:20;;;;;;;1.65;1.30;;;2.20;85.70;;;;;;4980578;28;20026;-76
2023/03/06 01:19:46;;;;;;;2.15;1.95;;;2.20;86.10;;;;;;4969903;28;20039;-76
2023/03/06 01:22:12;;;;;;;0.17;0.17;;;2.10;86.40;;;;;;4975399;28;20023;-76
2023/03/06 01:24:37;;;;;;;0.77;0.50;;;2.10;86.80;;;;;;4977334;28;20050;-76
2023/03/06 01:27:03;;;;;;;0.20;0.20;;;2.00;87.00;;;;;;4982799;28;20043;-76
2023/03/06 01:29:29;;;;;;;0.20;0.20;;;2.10;87.00;;;;;;4977211;28;20039;-76
2023/03/06 01:31:55;;;;;;;0.20;0.20;;;2.20;86.20;;;;;;4954403;28;20505;-76
2023/03/06 01:34:21;;;;;;;1.10;1.08;;;2.20;86.20;;;;;;4977622;28;20110;-76
2023/03/06 01:36:46;;;;;;;0.40;0.40;;;2.10;86.80;;;;;;4978514;28;20125;-76
2023/03/06 01:39:12;;;;;;;0.45;0.45;;;2.00;87.30;;;;;;4976465;28;20105;-76
2023/03/06 01:41:38;;;;;;;0.68;0.63;;;1.90;87.60;;;;;;4964289;28;20022;-76
2023/03/06 01:44:03;;;;;;;0.50;0.50;;;1.80;88.10;;;;;;4987115;28;20054;-76
2023/03/06 01:46:40;;;;;;;4.72;1.65;;;1.90;88.10;;;;;;4992883;28;20084;-76
2023/03/06 01:49:15;;;;;;;0.40;0.40;;;1.80;88.10;;;;;;4988792;28;20108;-76
2023/03/06 01:52:01;;;;;;;0.10;0.10;;;1.80;88.40;;;;;;4994170;28;20038;-76
2023/03/06 01:55:09;;;;;;;3.85;1.65;;;1.90;88.20;;;;;;4996179;28;20029;-76
2023/03/06 01:57:46;;;;;;;2.90;0.63;;;1.80;88.20;;;;;;4956508;28;20451;-76
2023/03/06 02:00:15;;;;;;;0.10;0.10;;;1.90;88.10;;;;;;4960979;28;20046;-76
2023/03/06 02:02:44;;;;;;;0.80;0.80;;;1.90;87.90;;;;;;4973969;28;20035;-75
2023/03/06 02:05:10;;;;;;;2.38;1.58;;;1.80;89.00;;;;;;5002387;28;20037;-76
2023/03/06 02:07:37;;;;;;;1.20;1.20;;;1.70;88.90;;;;;;4989250;28;20033;-75
2023/03/06 02:10:04;;;;;;;0.30;0.30;;;1.60;89.50;;;;;;5001029;28;20026;-75
2023/03/06 02:12:30;;;;;;;0.57;0.57;;;1.60;89.70;;;;;;4995019;28;20034;-76
2023/03/06 02:14:56;;;;;;;0.75;0.75;;;1.60;89.80;;;;;;4995517;28;20811;-75
2023/03/06 02:17:22;;;;;;;2.50;1.75;;;1.40;90.10;;;;;;4998061;28;20045;-75
2023/03/06 02:19:50;;;;;;;1.17;1.15;;;1.40;90.30;;;;;;5000979;28;20049;-75
2023/03/06 02:22:16;;;;;;;0.22;0.22;;;1.40;90.50;;;;;;4999337;28;20045;-75
2023/03/06 02:25:02;;;;;;;0.45;0.45;;;1.30;90.60;;;;;;4995823;28;20034;-75
2023/03/06 02:27:28;;;;;;;4.57;2.45;;;1.30;90.80;;;;;;4999935;28;20061;-75
2023/03/06 02:29:54;;;;;;;0.20;0.20;;;1.10;91.10;;;;;;5001582;28;20057;-75
2023/03/06 02:32:19;;;;;;;0.22;0.22;;;1.00;91.40;;;;;;5003892;28;20073;-76
2023/03/06 02:34:50;;;;;;;1.15;1.15;;;1.00;91.50;;;;;;4998390;28;20026;-76
2023/03/06 02:37:16;;;;;;;0.80;0.80;;;1.00;91.50;;;;;;4996605;28;20532;-75
2023/03/06 02:39:58;;;;;;;1.63;1.52;;;1.00;91.50;;;;;;4998548;28;20042;-75
2023/03/06 02:42:27;;;;;;;1.02;0.82;;;1.10;91.40;;;;;;4995507;28;20022;-75
2023/03/06 02:44:54;;;;;;;1.17;0.75;;;1.10;91.20;;;;;;4990956;28;20053;-75
2023/03/06 02:47:20;;;;;;;1.20;1.10;;;1.20;91.10;;;;;;4998657;28;20038;-75
2023/03/06 02:49:46;;;;;;;0.80;0.80;;;1.10;91.30;;;;;;4997493;28;20061;-76
2023/03/06 02:52:12;;;;;;;0.88;0.85;;;1.10;91.30;;;;;;5000229;28;20034;-75
2023/03/06 02:54:37;;;;;;;0.40;0.40;;;1.10;91.60;;;;;;5001805;28;20519;-74
2023/03/06 02:57:03;;;;;;;0.50;0.50;;;1.20;91.30;;;;;;4998483;28;20022;-74
2023/03/06 02:59:29;;;;;;;0.30;0.30;;;1.20;91.10;;;;;;4994410;28;20379;-75
2023/03/06 03:01:54;;;;;;;1.98;1.88;;;1.10;91.10;;;;;;4995544;28;20036;-75
2023/03/06 03:04:20;;;;;;;0.30;0.30;;;1.00;91.70;;;;;;4992075;28;20037;-75
2023/03/06 03:06:46;;;;;;;0.82;0.80;;;1.00;91.70;;;;;;4998672;28;20034;-75
2023/03/06 03:09:11;;;;;;;1.65;1.05;;;1.00;91.80;;;;;;4991342;28;20033;-75
2023/03/06 03:11:37;;;;;;;0.65;0.65;;;1.00;91.80;;;;;;4996624;28;20026;-75
2023/03/06 03:14:03;;;;;;;1.07;1.07;;;1.10;91.60;;;;;;5000519;28;20027;-75
2023/03/06 03:16:29;;;;;;;0.35;0.35;;;1.10;91.50;;;;;;4995008;28;20034;-75
2023/03/06 03:18:54;;;;;;;0.38;0.38;;;1.00;91.70;;;;;;4998372;28;20038;-75
2023/03/06 03:21:20;;;;;;;2.03;1.63;;;0.90;91.90;;;;;;5002681;28;20049;-75
2023/03/06 03:23:46;;;;;;;0.85;0.85;;;0.80;92.10;;;;;;5003794;28;20634;-74
2023/03/06 03:26:17;;;;;;;2.47;1.55;;;0.80;92.10;;;;;;5003013;28;20030;-75
2023/03/06 03:28:43;;;;;;;0.52;0.52;;;0.80;92.10;;;;;;4995628;28;20036;-75
2023/03/06 03:31:10;;;;;;;0.70;0.70;;;0.80;92.00;;;;;;5002525;28;20835;-75
2023/03/06 03:33:36;;;;;;;0.57;0.57;;;0.90;92.00;;;;;;5000777;28;20030;-75
2023/03/06 03:36:03;;;;;;;0.50;0.50;;;0.70;92.20;;;;;;5000346;28;20417;-75
2023/03/06 03:38:30;;;;;;;1.27;0.40;;;0.50;92.60;;;;;;4996823;28;20041;-75
2023/03/06 03:40:55;;;;;;;0.95;0.88;;;0.50;92.90;;;;;;5002720;28;20026;-75
2023/03/06 03:43:21;;;;;;;0.40;0.40;;;0.30;93.20;;;;;;5002722;28;20037;-75
2023/03/06 03:45:47;;;;;;;1.48;1.38;;;0.30;93.60;;;;;;4984611;28;20090;-75
2023/03/06 03:48:12;;;;;;;0.50;0.50;;;0.30;93.60;;;;;;4978946;28;20908;-76
2023/03/06 03:50:38;;;;;;;6.93;1.58;;;0.30;93.50;;;;;;4982493;28;20034;-77
2023/03/06 03:53:04;;;;;;;0.57;0.57;;;0.30;93.50;;;;;;4979647;28;20482;-77
2023/03/06 03:55:30;;;;;;;0.70;0.50;;;0.20;93.60;;;;;;4981751;28;20030;-77
2023/03/06 03:57:55;;;;;;;1.38;0.75;;;0.10;93.80;;;;;;4976732;28;20596;-77
2023/03/06 04:00:21;;;;;;;0.70;0.70;;;0.20;93.90;;;;;;4984301;28;20038;-77
2023/03/06 04:02:47;;;;;;;0.80;0.80;;;0.20;93.80;;;;;;4981456;28;20042;-76
2023/03/06 04:05:14;;;;;;;0.30;0.30;;;0.30;93.60;;;;;;4984334;28;20022;-77
2023/03/06 04:07:40;;;;;;;;;;;0.30;93.50;;;;;;4970769;28;20255;-75
2023/03/06 04:10:08;;;;;;;0.28;0.28;;;0.30;93.50;;;;;;4975227;28;19914;-75
2023/03/06 04:12:34;;;;;;;0.30;0.30;;;0.20;93.80;;;;;;4967037;28;20580;-75
2023/03/06 04:15:00;;;;;;;1.75;1.65;;;0.20;94.20;;;;;;4983639;28;20026;-75
2023/03/06 04:17:26;;;;;;;6.03;1.77;;;0.30;94.00;;;;;;4978665;28;20061;-75
2023/03/06 04:19:52;;;;;;;0.63;0.63;;;0.30;94.10;;;;;;4976475;28;20147;-76
2023/03/06 04:22:18;;;;;;;11.30;1.50;;;0.30;93.90;;;;;;4976516;28;20449;-76
2023/03/06 04:24:43;;;;;;;0.47;0.47;;;0.20;94.00;;;;;;4982291;28;20060;-75
2023/03/06 04:27:09;;;;;;;1.50;1.13;;;0.20;94.20;;;;;;4981383;28;20018;-76
2023/03/06 04:29:35;;;;;;;1.38;1.35;;;0.20;94.30;;;;;;4981906;28;20038;-75
2023/03/06 04:32:01;;;;;;;0.32;0.25;;;0.10;94.40;;;;;;4980266;28;20023;-76
2023/03/06 04:34:26;;;;;;;1.98;1.05;;;0.00;94.60;;;;;;4981829;28;20030;-75
2023/03/06 04:36:52;;;;;;;0.25;0.25;;;-0.10;94.70;;;;;;4978346;28;20027;-75
2023/03/06 04:39:18;;;;;;;0.60;0.60;;;-0.10;94.80;;;;;;4977819;28;20537;-75
2023/03/06 04:41:44;;;;;;;0.40;0.40;;;-0.20;95.10;;;;;;4980487;28;20034;-75
2023/03/06 04:44:09;;;;;;;0.30;0.30;;;-0.20;95.10;;;;;;4984909;28;20054;-75
2023/03/06 04:46:35;;;;;;;1.20;1.10;;;-0.10;94.90;;;;;;4999559;28;20145;-76
2023/03/06 04:49:01;;;;;;;0.75;0.52;;;0.00;94.50;;;;;;5002413;28;20037;-76
2023/03/06 04:51:27;;;;;;;0.10;0.10;;;0.10;94.40;;;;;;4981104;28;20030;-77
2023/03/06 04:53:52;;;;;;;1.83;1.25;;;0.00;94.50;;;;;;4996751;28;20544;-75
2023/03/06 04:56:18;;;;;;;0.30;0.30;;;0.00;94.70;;;;;;4996271;28;20058;-76
2023/03/06 04:58:44;;;;;;;1.40;1.38;;;0.10;94.50;;;;;;5000658;28;20029;-76
2023/03/06 05:01:10;;;;;;;0.17;0.17;;;0.00;94.50;;;;;;4997832;28;20042;-76
2023/03/06 05:03:36;;;;;;;0.20;0.20;;;0.10;94.60;;;;;;4996131;28;20386;-75
2023/03/06 05:06:03;;;;;;;0.22;0.22;;;0.20;94.40;;;;;;4997071;28;20032;-75
2023/03/06 05:08:28;;;;;;;0.52;0.52;;;0.10;94.50;;;;;;4994119;28;20026;-76
2023/03/06 05:10:59;;;;;;;1.02;1.02;;;0.00;94.80;;;;;;5000598;28;20037;-76
2023/03/06 05:13:27;;;;;;;1.02;1.02;;;-0.10;95.10;;;;;;5002822;28;20117;-76
2023/03/06 05:15:53;;;;;;;0.38;0.38;;;-0.10;95.20;;;;;;5000832;28;20029;-76
2023/03/06 05:18:19;;;;;;;0.80;0.52;;;-0.10;95.40;;;;;;4991270;28;20470;-76
2023/03/06 05:20:45;;;;;;;0.63;0.60;;;-0.10;95.40;;;;;;5000850;28;20156;-76
2023/03/06 05:23:11;;;;;;;0.68;0.68;;;-0.10;95.20;;;;;;4997864;28;20129;-76
2023/03/06 05:25:39;;;;;;;0.68;0.68;;;-0.20;95.30;;;;;;4998295;28;20056;-76
2023/03/06 05:28:05;;;;;;;0.65;0.65;;;-0.30;95.50;;;;;;4993668;28;20034;-76
2023/03/06 05:30:31;;;;;;;0.60;0.60;;;-0.30;95.60;;;;;;4995587;28;20712;-77
2023/03/06 05:32:57;;;;;;;0.40;0.40;;;-0.40;95.70;;;;;;5001729;28;20021;-76
2023/03/06 05:35:23;;;;;;;0.77;0.77;;;-0.50;95.90;;;;;;4996784;28;20653;-76
2023/03/06 05:37:49;;;;;;;2.00;1.85;;;-0.50;96.00;;;;;;4995643;28;20064;-76
2023/03/06 05:40:15;;;;;;;0.93;0.93;;;-0.50;96.20;;;;;;4993637;28;20135;-75
2023/03/06 05:42:41;;;;;;;0.20;0.20;;;-0.40;96.20;;;;;;4986303;28;20079;-75
2023/03/06 05:45:08;;;;;;;1.35;0.52;;;-0.50;96.10;;;;;;4985255;28;20046;-76
2023/03/06 05:47:33;;;;;;;0.60;0.60;;;-0.50;96.20;;;;;;5000680;28;20071;-76
2023/03/06 05:49:59;;;;;;;1.10;0.55;;;-0.60;96.30;;;;;;4999470;28;20030;-76
2023/03/06 05:52:25;;;;;;;1.27;1.17;;;-0.60;96.40;;;;;;4997599;28;20089;-75
2023/03/06 05:54:52;;;;;;;0.10;0.10;;;-0.60;96.60;;;;;;5000312;28;20041;-75
2023/03/06 05:57:19;;;;;;;1.98;0.75;;;-0.60;96.70;;;;;;4998897;28;20031;-75
2023/03/06 05:59:45;;;;;;;;;;;-0.70;96.90;;;;;;4999253;28;20788;-75
2023/03/06 06:02:11;;;;;;;0.40;0.40;;;-0.70;96.80;;;;;;4993784;28;19924;-76
2023/03/06 06:04:36;;;;;;;0.52;0.52;;;-0.60;96.60;;;;;;5007137;28;20038;-75
2023/03/06 06:07:02;;;;;;;0.70;0.70;;;-0.50;96.30;;;;;;4993193;28;20026;-76
2023/03/06 06:09:28;;;;;;;0.57;0.57;;;-0.60;96.70;;;;;;5000005;28;20030;-77
2023/03/06 06:11:56;;;;;;;0.20;0.20;;;-0.60;96.70;;;;;;4999359;28;20014;-76
2023/03/06 06:14:22;;;;;;;0.30;0.30;;;-0.60;96.70;;;;;;4996725;28;20048;-78
2023/03/06 06:16:49;;;;;;;1.63;0.85;;;-0.60;96.80;;;;;;4999141;28;20030;-76
2023/03/06 06:19:17;;;;;;;0.20;0.20;;;-0.70;97.00;;;;;;4987862;28;20120;-76
2023/03/06 06:21:50;;;;;;;0.75;0.50;;;-0.60;96.90;;;;;;5000665;28;20385;-75
2023/03/06 06:24:18;;;;;;;0.65;0.65;;;-0.60;97.00;;;;;;4999122;28;20034;-76
2023/03/06 06:26:44;;;;;;;1.23;1.23;;;-0.70;97.20;;;;;;4993616;28;20129;-76
2023/03/06 06:29:11;;;;;;;0.40;0.40;;;-0.50;96.80;;;;;;4999629;28;20033;-76
2023/03/06 06:31:37;;;;;;;0.45;0.45;;;-0.30;96.50;;;;;;4997111;28;20819;-75
2023/03/06 06:34:04;;;;;;;0.30;0.30;;;-0.30;96.50;;;;;;4979970;28;20018;-76
2023/03/06 06:36:30;;;;;;;0.35;0.35;;;0.00;96.10;;;;;;5004945;28;20116;-76
2023/03/06 06:38:56;;;;;;;0.73;0.73;;;0.30;95.10;;;;;;4997341;28;20034;-75
2023/03/06 06:41:22;;;;;;;0.20;0.20;;;0.60;94.40;;;;;;4998007;28;20760;-77
2023/03/06 06:43:48;;;;;;;2.60;1.20;;;1.00;93.70;;;;;;5000945;28;20046;-77
2023/03/06 06:46:13;;;;;;;0.68;0.68;;;1.10;93.20;;;;;;4995572;28;20113;-77
2023/03/06 06:48:39;;;;;;;0.30;0.30;;;1.40;92.60;;;;;;5016470;28;20501;-76
2023/03/06 06:51:05;;;;;;;0.65;0.65;;;1.50;92.10;;;;;;4994977;28;20029;-77
2023/03/06 06:53:31;;;;;;;1.65;1.55;;;1.60;91.80;;;;;;4992745;28;20058;-77
2023/03/06 06:55:59;;;;;;;2.03;1.30;;;1.90;91.30;;;;;;5002902;28;20108;-76
2023/03/06 06:58:25;;;;;;;1.10;0.85;;;2.10;90.90;;;;;;5004224;28;20115;-75
2023/03/06 07:00:51;;;;;;;1.00;0.40;;;2.40;90.10;;;;;;5011888;28;20038;-76
2023/03/06 07:03:17;;;;;;;2.28;2.08;;;2.60;89.40;;;;;;4995707;28;20489;-76
2023/03/06 07:05:43;;;;;;;0.38;0.38;;;2.60;88.50;;;;;;5006953;28;20061;-77
2023/03/06 07:08:09;;;;;;;1.95;0.73;;;2.70;88.80;;;;;;5002351;28;20018;-77
2023/03/06 07:10:38;;;;;;;0.57;0.57;;;2.70;88.00;;;;;;5001218;28;20485;-76
2023/03/06 07:13:04;;;;;;;0.60;0.40;;;2.50;87.60;;;;;;5007116;28;20026;-77
2023/03/06 07:15:29;;;;;;;1.38;1.15;;;2.90;86.60;;;;;;5005664;28;20053;-76
2023/03/06 07:17:55;;;;;;;1.35;0.95;;;3.20;85.80;;;;;;5003691;28;20101;-77
2023/03/06 07:20:21;;;;;;;0.40;0.40;;;3.40;85.20;;;;;;5004632;28;20042;-78
2023/03/06 07:22:48;;;;;;;0.32;0.32;;;3.50;84.80;;;;;;4997983;28;20030;-77
2023/03/06 07:25:14;;;;;;;3.40;1.27;;;3.70;84.10;;;;;;5003586;28;20112;-77
2023/03/06 07:27:40;;;;;;;0.82;0.82;;;4.00;83.00;;;;;;5004848;28;20591;-77
2023/03/06 07:30:06;;;;;;;0.60;0.60;;;3.90;82.00;;;;;;4993441;28;20038;-77
2023/03/06 07:32:32;;;;;;;1.20;1.10;;;4.20;82.50;;;;;;5014891;28;20027;-78
2023/03/06 07:34:57;;;;;;;1.27;0.63;;;4.40;81.20;;;;;;5007775;28;20030;-77
2023/03/06 07:37:23;;;;;;;0.10;0.10;;;4.50;81.40;;;;;;5003597;28;20029;-77
2023/03/06 07:39:49;;;;;;;0.52;0.52;;;4.70;80.20;;;;;;5009836;28;20161;-78
2023/03/06 07:42:15;;;;;;;1.38;1.00;;;5.30;79.20;;;;;;5020496;28;20123;-78
2023/03/06 07:44:41;;;;;;;0.43;0.43;;;5.20;79.60;;;;;;5018335;28;20057;-78
2023/03/06 07:47:07;;;;;;;10.52;2.92;;;5.40;79.60;;;;;;5005119;28;20041;-78
2023/03/06 07:49:33;;;;;;;0.20;0.20;;;5.90;78.30;;;;;;5014572;28;20028;-78
2023/03/06 07:52:00;;;;;;;0.20;0.20;;;5.90;78.20;;;;;;5014914;28;20048;-78
2023/03/06 07:54:26;;;;;;;;;;;6.20;78.20;;;;;;5005285;28;20073;-77
2023/03/06 07:56:52;;;;;;;1.23;1.23;;;6.40;77.80;;;;;;5003445;28;19910;-78
2023/03/06 07:59:18;;;;;;;1.48;1.38;;;6.60;77.30;;;;;;5012637;28;20025;-78
2023/03/06 08:01:43;;;;;;;1.00;0.80;;;6.40;77.70;;;;;;5013411;28;20032;-78
2023/03/06 08:04:09;;;;;;;0.35;0.35;;;6.70;75.70;;;;;;5014463;28;20072;-78
2023/03/06 08:06:35;;;;;;;0.40;0.40;;;6.50;76.20;;;;;;4994854;28;20732;-77
2023/03/06 08:09:01;;;;;;;0.85;0.63;;;7.10;77.50;;;;;;5001143;28;20034;-79
2023/03/06 08:11:29;;;;;;;0.93;0.90;;;7.10;74.90;;;;;;5002574;28;20018;-78
2023/03/06 08:13:56;;;;;;;1.08;1.05;;;7.20;75.70;;;;;;5003699;28;20037;-78
2023/03/06 08:16:23;;;;;;;;;;;7.30;75.50;;;;;;5005204;28;20547;-78
2023/03/06 08:18:50;;;;;;;2.13;1.55;;;7.40;75.20;;;;;;5004263;28;19910;-78
2023/03/06 08:21:18;;;;;;;0.90;0.85;;;7.30;76.90;;;;;;5004480;28;20074;-78
2023/03/06 08:23:45;;;;;;;0.45;0.45;;;7.40;74.10;;;;;;5002223;28;20085;-77
2023/03/06 08:26:16;;;;;;;1.00;1.00;;;7.70;73.90;;;;;;5004673;28;20037;-78
2023/03/06 08:28:42;;;;;;;0.50;0.50;;;8.10;73.20;;;;;;5002147;28;20030;-78
2023/03/06 08:31:12;;;;;;;0.57;0.57;;;8.20;71.70;;;;;;5004801;28;20048;-78
2023/03/06 08:33:39;;;;;;;0.32;0.32;;;8.40;71.80;;;;;;5002704;28;20051;-77
2023/03/06 08:36:05;;;;;;;1.48;1.38;;;8.70;71.30;;;;;;5003259;28;20092;-78
2023/03/06 08:38:31;;;;;;;0.55;0.45;;;9.00;70.40;;;;;;5003388;28;20033;-78
2023/03/06 08:40:56;;;;;;;0.43;0.30;;;8.70;71.30;;;;;;5000850;28;20041;-77
2023/03/06 08:43:22;;;;;;;0.60;0.40;;;8.70;70.90;;;;;;5001349;28;20030;-78
2023/03/06 08:45:56;;;;;;;0.57;0.57;;;9.00;70.40;;;;;;4998197;28;20058;-78
2023/03/06 08:48:22;;;;;;;0.70;0.47;;;9.90;71.20;;;;;;4990425;28;20030;-78
2023/03/06 08:50:48;;;;;;;0.57;0.57;;;10.20;70.90;;;;;;4990148;28;20026;-78
2023/03/06 08:53:14;;;;;;;6.33;1.40;;;10.70;68.60;;;;;;4991314;28;20121;-78
2023/03/06 08:55:40;;;;;;;3.65;2.55;;;11.00;67.50;;;;;;4972845;28;20059;-78
2023/03/06 08:58:06;;;;;;;0.50;0.50;;;11.10;68.50;;;;;;4990624;28;20389;-78
2023/03/06 09:00:32;;;;;;;0.40;0.40;;;11.20;67.00;;;;;;4994566;28;20184;-79
2023/03/06 09:02:57;;;;;;;2.80;1.13;;;11.10;66.20;;;;;;4985100;28;20022;-78
2023/03/06 09:05:23;;;;;;;0.50;0.50;;;11.30;66.80;;;;;;4989244;28;20026;-78
2023/03/06 09:07:49;;;;;;;1.60;1.05;;;11.70;65.70;;;;;;4974505;28;20685;-78
2023/03/06 09:10:18;;;;;;;3.35;1.20;;;11.50;66.00;;;;;;4983657;28;20099;-78
2023/03/06 09:12:44;;;;;;;0.47;0.47;;;11.70;64.90;;;;;;4982958;28;20037;-78
2023/03/06 09:15:11;;;;;;;0.40;0.40;;;11.70;64.90;;;;;;4984789;28;20330;-78
2023/03/06 09:17:37;;;;;;;0.93;0.93;;;11.50;65.10;;;;;;4989325;28;20030;-79
2023/03/06 09:20:04;;;;;;;0.93;0.90;;;11.80;64.50;;;;;;4988829;28;20049;-78
2023/03/06 09:22:30;;;;;;;;;;;11.80;64.00;;;;;;4969512;28;20042;-78
2023/03/06 09:24:56;;;;;;;0.43;0.43;;;12.00;64.50;;;;;;4990837;28;19956;-78
2023/03/06 09:27:22;;;;;;;0.32;0.32;;;11.90;65.30;;;;;;4983976;28;20030;-78
2023/03/06 09:29:47;;;;;;;2.35;2.15;;;12.00;65.50;;;;;;4994901;28;20030;-78
2023/03/06 09:32:13;;;;;;;0.90;0.73;;;11.00;66.20;;;;;;4994839;28;20053;-79
2023/03/06 09:34:39;;;;;;;1.95;1.05;;;11.70;65.60;;;;;;4984611;28;20027;-78
2023/03/06 09:37:05;;;;;;;0.63;0.63;;;12.50;64.40;;;;;;4986768;28;20066;-79
2023/03/06 09:39:31;;;;;;;1.67;1.60;;;12.50;65.80;;;;;;4990200;28;20049;-78
2023/03/06 09:41:57;;;;;;;7.43;3.25;;;12.60;63.30;;;;;;4984560;28;20026;-78
2023/03/06 09:44:26;;;;;;;1.80;1.70;;;12.50;63.50;;;;;;4991652;28;20050;-78
2023/03/06 09:47:02;;;;;;;3.42;1.85;;;12.80;63.40;;;;;;4983246;28;20449;-78
2023/03/06 09:49:40;;;;;;;4.25;1.80;;;13.20;62.10;;;;;;5000354;28;20029;-79
2023/03/06 09:52:28;;;;;;;1.42;1.33;;;13.00;62.70;;;;;;5000758;28;20033;-78
2023/03/06 09:55:17;;;;;;;8.00;1.55;;;12.80;63.30;;;;;;4998454;28;20034;-79
2023/03/06 09:57:57;;;;;;;1.00;1.00;;;11.30;66.20;;;;;;4998665;28;20052;-79
2023/03/06 10:00:29;;;;;;;1.80;1.60;;;11.40;65.10;;;;;;4994965;28;20746;-78
2023/03/06 10:03:17;;;;;;;1.30;1.27;;;11.50;66.60;;;;;;4990944;28;20027;-78
2023/03/06 10:05:48;;;;;;;0.73;0.73;;;11.00;64.70;;;;;;4991772;28;20936;-79
2023/03/06 10:08:41;;;;;;;2.60;1.73;;;9.70;69.90;;;;;;5001164;28;20892;-77
2023/03/06 10:11:13;;;;;;;5.82;1.48;;;9.50;74.20;;;;;;5001433;28;20111;-79
2023/03/06 10:13:46;;;;;;;1.50;1.40;;;9.70;72.30;;;;;;5001656;28;20022;-79
2023/03/06 10:16:17;;;;;;;1.23;1.23;;;9.80;73.00;;;;;;5001577;28;20018;-79
2023/03/06 10:18:43;;;;;;;1.58;0.95;;;9.30;73.40;;;;;;5000250;28;20029;-79
2023/03/06 10:21:20;;;;;;;18.70;2.75;;;8.80;73.80;;;;;;4995912;28;20802;-79
2023/03/06 10:24:13;;;;;;;1.85;1.75;;;8.90;72.70;;;;;;4998149;28;20469;-78
2023/03/06 10:26:51;;;;;;;1.58;1.48;;;9.50;72.10;;;;;;4997917;28;20795;-79
2023/03/06 10:29:30;;;;;;;3.03;1.95;;;10.10;71.90;;;;;;4984700;28;20105;-78
2023/03/06 10:32:36;;;;;;;2.10;1.33;;;9.70;72.30;;;;;;4999903;28;20130;-78
2023/03/06 10:35:11;;;;;;;4.65;1.92;;;9.10;75.80;;;;;;4971284;28;20045;-78
2023/03/06 10:37:37;;;;;;;0.77;0.77;;;9.60;73.30;;;;;;4992554;28;20044;-78
2023/03/06 10:40:18;;;;;;;1.15;1.13;;;9.80;71.00;;;;;;4999192;28;20402;-78
2023/03/06 10:42:43;;;;;;;1.45;1.35;;;10.00;72.40;;;;;;4992763;28;20045;-79
2023/03/06 10:45:12;;;;;;;2.22;0.85;;;10.50;71.40;;;;;;4998901;28;20144;-79
2023/03/06 10:47:39;;;;;;;1.35;1.20;;;10.10;72.30;;;;;;5002688;28;20400;-79
2023/03/06 10:50:21;;;;;;;;;;;9.60;73.40;;;;;;4998408;28;20112;-78
2023/03/06 10:53:03;;;;;;;2.50;2.30;;;10.60;74.80;;;;;;4998214;28;20714;-78
2023/03/06 10:55:31;;;;;;;1.42;1.33;;;10.00;75.90;;;;;;5001003;28;20030;-79
2023/03/06 10:58:15;;;;;;;0.70;0.70;;;9.60;74.30;;;;;;5000719;28;20787;-79
2023/03/06 11:00:40;;;;;;;0.35;0.35;;;9.90;75.80;;;;;;4988204;28;20171;-78
2023/03/06 11:03:17;;;;;;;4.47;3.97;;;10.00;75.60;;;;;;4997203;28;20034;-78
2023/03/06 11:05:52;;;;;;;;;;;9.60;75.90;;;;;;4992513;28;20034;-79
2023/03/06 11:08:22;;;;;;;0.35;0.35;;;9.60;74.70;;;;;;5001725;28;20063;-78
2023/03/06 11:10:56;;;;;;;2.60;2.40;;;9.00;75.00;;;;;;5000938;28;20089;-79
2023/03/06 11:13:24;;;;;;;0.75;0.75;;;9.60;74.80;;;;;;4999722;28;20029;-78
2023/03/06 11:15:56;;;;;;;2.83;1.75;;;9.80;77.50;;;;;;5000238;28;20057;-79
2023/03/06 11:18:34;;;;;;;5.25;2.20;;;9.70;77.30;;;;;;4990705;28;20532;-78
2023/03/06 11:21:03;;;;;;;0.88;0.88;;;9.20;78.80;;;;;;4995436;28;20057;-79
2023/03/06 11:23:46;;;;;;;0.90;0.90;;;9.90;76.60;;;;;;4997575;28;20037;-79
2023/03/06 11:26:27;;;;;;;2.55;2.35;;;10.00;76.40;;;;;;4989061;28;20033;-78
2023/03/06 11:29:10;;;;;;;3.03;2.22;;;9.20;75.90;;;;;;5001935;28;20109;-78
2023/03/06 11:31:44;;;;;;;3.25;2.35;;;9.70;76.70;;;;;;4999466;28;20116;-79
2023/03/06 11:34:10;;;;;;;1.58;1.48;;;9.70;72.90;;;;;;5000171;28;20854;-79
2023/03/06 11:36:54;;;;;;;4.22;2.70;;;9.30;75.80;;;;;;5000300;28;20046;-79
2023/03/06 11:39:31;;;;;;;1.27;1.27;;;9.00;74.20;;;;;;4993896;28;20493;-79
2023/03/06 11:42:04;;;;;;;1.73;1.63;;;9.50;78.80;;;;;;5002872;28;20505;-79
2023/03/06 11:44:57;;;;;;;1.13;1.08;;;9.10;78.30;;;;;;5001713;28;20045;-79
2023/03/06 11:47:30;;;;;;;4.43;1.77;;;9.00;79.20;;;;;;4991628;28;20026;-79
2023/03/06 11:50:33;;;;;;;1.58;1.48;;;8.60;76.00;;;;;;4986922;28;20030;-78
2023/03/06 11:53:11;;;;;;;1.10;1.10;;;8.50;79.80;;;;;;4988906;28;20030;-79
2023/03/06 11:55:46;;;;;;;0.75;0.75;;;9.00;77.80;;;;;;4991992;28;20166;-78
2023/03/06 11:58:44;;;;;;;2.08;1.35;;;8.60;76.20;;;;;;4985982;28;20034;-80
2023/03/06 12:01:46;;;;;;;2.50;1.35;;;8.70;75.70;;;;;;4989775;28;20055;-78
2023/03/06 12:04:24;;;;;;;2.60;2.38;;;8.50;75.30;;;;;;4981762;28;20327;-79
2023/03/06 12:07:24;;;;;;;1.25;0.88;;;8.40;76.00;;;;;;4975190;28;20053;-78
2023/03/06 12:10:01;;;;;;;2.88;2.13;;;8.70;74.90;;;;;;4977183;28;20034;-79
2023/03/06 12:12:33;;;;;;;6.80;2.42;;;9.40;75.30;;;;;;4987378;28;20443;-78
2023/03/06 12:15:19;;;;;;;0.65;0.50;;;9.60;76.20;;;;;;4992373;28;20197;-79
2023/03/06 12:17:57;;;;;;;1.50;1.13;;;9.70;74.80;;;;;;4995014;28;20409;-80
2023/03/06 12:20:32;;;;;;;0.47;0.47;;;10.30;74.40;;;;;;4985758;28;20038;-79
2023/03/06 12:23:15;;;;;;;1.23;1.17;;;10.70;75.20;;;;;;4994361;28;20042;-79
2023/03/06 12:25:47;;;;;;;1.02;0.68;;;10.90;72.80;;;;;;4985070;28;20026;-79
2023/03/06 12:28:32;;;;;;;0.90;0.90;;;10.50;72.50;;;;;;4974185;28;20034;-78
2023/03/06 12:31:23;;;;;;;4.28;2.42;;;9.80;70.40;;;;;;4982254;28;20037;-79
2023/03/06 12:34:26;;;;;;;2.47;1.35;;;9.20;71.00;;;;;;4994945;28;20085;-79
2023/03/06 12:37:16;;;;;;;1.13;1.08;;;9.00;72.40;;;;;;4983925;28;20580;-78
2023/03/06 12:39:44;;;;;;;2.80;0.98;;;9.50;70.70;;;;;;4985515;28;20034;-79
2023/03/06 12:42:41;;;;;;;4.68;2.45;;;9.90;71.80;;;;;;4996002;28;20056;-78
2023/03/06 12:45:20;;;;;;;1.75;1.17;;;9.80;70.00;;;;;;4994402;28;20046;-79
2023/03/06 12:47:48;;;;;;;2.95;1.35;;;9.60;67.10;;;;;;4989815;28;20062;-79
2023/03/06 12:50:17;;;;;;;1.73;1.63;;;9.60;70.40;;;;;;4994761;28;20021;-79
2023/03/06 12:52:43;;;;;;;2.08;1.58;;;10.00;67.80;;;;;;4987027;28;20048;-79
2023/03/06 12:55:15;;;;;;;1.15;1.15;;;9.70;69.50;;;;;;4992102;28;20077;-79
2023/03/06 12:57:41;;;;;;;1.73;1.63;;;9.80;70.00;;;;;;4985365;28;20028;-79
2023/03/06 13:00:10;;;;;;;0.73;0.73;;;10.40;70.30;;;;;;4988412;28;20493;-78
2023/03/06 13:02:50;;;;;;;1.20;1.17;;;10.40;69.90;;;;;;4993160;28;20030;-79
2023/03/06 13:05:19;;;;;;;4.63;3.17;;;10.60;70.00;;;;;;4989938;28;20026;-78
2023/03/06 13:08:00;;;;;;;0.95;0.82;;;10.40;69.80;;;;;;4985558;28;20030;-79